Time;durP1;ratioP1;P1;durP2;ratioP2;P2;SDS_P1;SDS_P2;PMS_P1;PMS_P2;Temp;Humidity;BMP_temperature;BMP_pressure;BME280_temperature;BME280_humidity;BME280_pressure;Samples;Min_cycle;Max_cycle;Signal;HPM_P1;HPM_P2
2021/01/27 00:00:59;;;;;;;5.90;4.63;;;;;;;;;;4775707;29;178574;-70
2021/01/27 00:03:27;;;;;;;7.60;4.70;;;;;;;;;;4774169;29;182478;-71
2021/01/27 00:05:53;;;;;;;7.97;4.93;;;;;;;;;;4777167;29;178898;-70
2021/01/27 00:08:21;;;;;;;6.30;4.80;;;;;;;;;;4774885;29;179142;-70
2021/01/27 00:10:48;;;;;;;9.53;4.77;;;;;;;;;;4775161;29;178944;-71
2021/01/27 00:13:21;;;;;;;6.60;4.33;;;;;;;;;;4775669;29;179913;-71
2021/01/27 00:15:48;;;;;;;7.90;4.97;;;;;;;;;;4775537;29;178840;-70
2021/01/27 00:18:16;;;;;;;7.93;4.80;;;;;;;;;;4775839;29;179115;-69
2021/01/27 00:20:45;;;;;;;7.77;4.93;;;;;;;;;;4773307;29;177667;-71
2021/01/27 00:23:19;;;;;;;9.63;5.50;;;;;;;;;;4771295;29;177872;-71
2021/01/27 00:25:52;;;;;;;8.30;5.47;;;;;;;;;;4776682;29;178528;-71
2021/01/27 00:28:19;;;;;;;8.63;5.17;;;;;;;;;;4774051;29;181984;-71
2021/01/27 00:30:46;;;;;;;9.40;5.70;;;;;;;;;;4774382;29;181477;-71
2021/01/27 00:33:17;;;;;;;8.13;5.57;;;;;;;;;;4775932;29;180702;-71
2021/01/27 00:35:48;;;;;;;10.50;5.93;;;;;;;;;;4768447;28;177935;-71
2021/01/27 00:38:16;;;;;;;11.43;6.57;;;;;;;;;;4756871;29;179308;-71
2021/01/27 00:40:45;;;;;;;9.37;6.57;;;;;;;;;;4770189;29;178232;-70
2021/01/27 00:43:12;;;;;;;8.30;6.00;;;;;;;;;;4758244;29;177864;-71
2021/01/27 00:45:42;;;;;;;12.00;7.70;;;;;;;;;;4764101;29;176543;-71
2021/01/27 00:48:09;;;;;;;11.53;7.13;;;;;;;;;;4776163;29;178585;-71
2021/01/27 00:50:41;;;;;;;11.33;7.03;;;;;;;;;;4776537;29;178628;-71
2021/01/27 00:53:11;;;;;;;10.23;7.10;;;;;;;;;;4743788;29;182525;-71
2021/01/27 00:55:48;;;;;;;10.23;7.13;;;;;;;;;;4771793;29;177968;-71
2021/01/27 00:58:19;;;;;;;10.13;6.43;;;;;;;;;;4763017;29;182789;-71
2021/01/27 01:00:49;;;;;;;10.47;6.77;;;;;;;;;;4775092;29;181028;-71
2021/01/27 01:03:26;;;;;;;7.90;6.20;;;;;;;;;;4762457;29;178064;-70
2021/01/27 01:05:53;;;;;;;11.83;6.70;;;;;;;;;;4774155;29;177887;-71
2021/01/27 01:08:20;;;;;;;12.17;6.90;;;;;;;;;;4777210;29;179400;-70
2021/01/27 01:10:52;;;;;;;10.80;6.30;;;;;;;;;;4778860;29;178244;-71
2021/01/27 01:13:31;;;;;;;10.17;6.77;;;;;;;;;;4778042;29;178235;-72
2021/01/27 01:16:25;;;;;;;11.67;6.27;;;;;;;;;;4760195;29;178450;-71
2021/01/27 01:18:52;;;;;;;9.27;6.40;;;;;;;;;;4771636;28;184470;-71
2021/01/27 01:21:21;;;;;;;10.70;6.40;;;;;;;;;;4765608;29;182396;-72
2021/01/27 01:23:49;;;;;;;10.80;6.27;;;;;;;;;;4777692;29;177976;-71
2021/01/27 01:26:15;;;;;;;10.37;6.27;;;;;;;;;;4762251;29;177938;-71
2021/01/27 01:28:46;;;;;;;9.23;6.30;;;;;;;;;;4777821;29;179612;-71
2021/01/27 01:31:13;;;;;;;8.73;5.77;;;;;;;;;;4777823;29;178172;-71
2021/01/27 01:33:40;;;;;;;9.53;5.73;;;;;;;;;;4777448;28;177962;-71
2021/01/27 01:36:15;;;;;;;8.20;5.23;;;;;;;;;;4778032;29;176927;-71
2021/01/27 01:38:41;;;;;;;6.93;5.60;;;;;;;;;;4776052;29;180108;-71
2021/01/27 01:41:09;;;;;;;7.30;5.30;;;;;;;;;;4776719;29;181280;-71
2021/01/27 01:43:39;;;;;;;7.10;5.20;;;;;;;;;;4774546;29;181325;-71
2021/01/27 01:46:14;;;;;;;6.57;4.77;;;;;;;;;;4777410;29;180399;-71
2021/01/27 01:48:44;;;;;;;6.87;5.07;;;;;;;;;;4772973;29;180018;-71
2021/01/27 01:51:21;;;;;;;10.13;5.17;;;;;;;;;;4760781;29;178009;-71
2021/01/27 01:54:23;;;;;;;7.03;5.00;;;;;;;;;;4775679;28;178165;-71
2021/01/27 01:56:53;;;;;;;6.73;4.63;;;;;;;;;;4764407;29;177967;-71
2021/01/27 01:59:20;;;;;;;8.67;5.23;;;;;;;;;;4777187;29;178811;-71
2021/01/27 02:02:05;;;;;;;8.67;4.77;;;;;;;;;;4774583;29;178298;-71
2021/01/27 02:04:44;;;;;;;7.63;4.77;;;;;;;;;;4777175;29;178029;-71
2021/01/27 02:07:13;;;;;;;5.90;4.33;;;;;;;;;;4774244;29;181024;-71
2021/01/27 02:09:40;;;;;;;8.70;5.23;;;;;;;;;;4774585;29;182547;-71
2021/01/27 02:12:20;;;;;;;5.90;4.47;;;;;;;;;;4767348;29;181705;-71
2021/01/27 02:14:57;;;;;;;5.67;4.37;;;;;;;;;;4776098;29;178043;-71
2021/01/27 02:17:29;;;;;;;8.20;4.00;;;;;;;;;;4774200;29;179057;-71
2021/01/27 02:20:16;;;;;;;7.23;4.30;;;;;;;;;;4777356;29;179553;-71
2021/01/27 02:22:42;;;;;;;9.47;5.00;;;;;;;;;;4774098;29;178919;-71
2021/01/27 02:25:32;;;;;;;5.53;4.17;;;;;;;;;;4776217;29;177868;-71
2021/01/27 02:28:00;;;;;;;4.43;3.73;;;;;;;;;;4775855;29;176638;-71
2021/01/27 02:30:46;;;;;;;6.87;4.13;;;;;;;;;;4774132;28;179252;-71
2021/01/27 02:33:31;;;;;;;5.53;3.93;;;;;;;;;;4772634;29;179126;-71
2021/01/27 02:36:13;;;;;;;8.43;3.90;;;;;;;;;;4742851;28;659024;-71
2021/01/27 02:38:51;;;;;;;6.87;3.97;;;;;;;;;;4776861;29;178650;-71
2021/01/27 02:41:28;;;;;;;5.50;3.87;;;;;;;;;;4773695;29;179699;-71
2021/01/27 02:43:57;;;;;;;5.60;3.70;;;;;;;;;;4774842;28;178938;-71
2021/01/27 02:46:37;;;;;;;6.97;4.10;;;;;;;;;;4776214;29;178912;-71
2021/01/27 02:49:11;;;;;;;5.50;3.70;;;;;;;;;;4776997;29;178008;-71
2021/01/27 02:51:51;;;;;;;5.87;3.73;;;;;;;;;;4775953;29;178282;-71
2021/01/27 02:54:20;;;;;;;5.77;3.90;;;;;;;;;;4776489;29;177675;-71
2021/01/27 02:56:49;;;;;;;5.87;3.80;;;;;;;;;;4775992;28;178715;-71
2021/01/27 02:59:18;;;;;;;4.23;3.40;;;;;;;;;;4777112;29;178012;-71
2021/01/27 03:01:48;;;;;;;6.07;3.77;;;;;;;;;;4772498;29;183869;-70
2021/01/27 03:04:18;;;;;;;5.53;3.80;;;;;;;;;;4776871;29;181494;-70
2021/01/27 03:06:47;;;;;;;6.73;4.10;;;;;;;;;;4776404;29;178564;-70
2021/01/27 03:09:20;;;;;;;7.33;4.13;;;;;;;;;;4776577;29;178430;-70
2021/01/27 03:11:49;;;;;;;5.60;4.33;;;;;;;;;;4776527;29;181565;-70
2021/01/27 03:14:15;;;;;;;6.57;4.73;;;;;;;;;;4775633;29;178777;-70
2021/01/27 03:16:54;;;;;;;7.13;4.30;;;;;;;;;;4775877;29;178177;-70
2021/01/27 03:19:23;;;;;;;7.43;5.13;;;;;;;;;;4776025;29;176421;-70
2021/01/27 03:21:53;;;;;;;5.83;4.57;;;;;;;;;;4775038;29;178287;-70
2021/01/27 03:24:22;;;;;;;8.57;5.17;;;;;;;;;;4775066;29;180008;-70
2021/01/27 03:26:56;;;;;;;8.40;5.23;;;;;;;;;;4774798;29;181251;-70
2021/01/27 03:29:59;;;;;;;8.10;5.40;;;;;;;;;;4775605;29;178259;-70
2021/01/27 03:32:25;;;;;;;9.43;5.73;;;;;;;;;;4698806;29;179669;-70
2021/01/27 03:34:57;;;;;;;10.77;5.97;;;;;;;;;;4755507;29;178327;-70
2021/01/27 03:37:28;;;;;;;10.27;6.67;;;;;;;;;;4774681;29;178052;-70
2021/01/27 03:39:57;;;;;;;10.73;6.27;;;;;;;;;;4776431;29;178143;-70
2021/01/27 03:42:28;;;;;;;10.33;6.83;;;;;;;;;;4759178;29;180244;-70
2021/01/27 03:44:58;;;;;;;13.00;7.57;;;;;;;;;;4775584;29;178767;-70
2021/01/27 03:47:40;;;;;;;12.10;6.97;;;;;;;;;;4776211;29;178029;-70
2021/01/27 03:50:11;;;;;;;11.47;7.80;;;;;;;;;;4775767;29;178140;-70
2021/01/27 03:52:42;;;;;;;11.37;7.57;;;;;;;;;;4773995;29;182721;-70
2021/01/27 03:55:16;;;;;;;12.03;7.70;;;;;;;;;;4775160;29;182031;-70
2021/01/27 03:57:46;;;;;;;14.20;8.13;;;;;;;;;;4775905;29;180299;-69
2021/01/27 04:00:13;;;;;;;11.77;8.23;;;;;;;;;;4775600;29;178191;-70
2021/01/27 04:02:40;;;;;;;15.13;8.70;;;;;;;;;;4775351;29;179877;-70
2021/01/27 04:05:07;;;;;;;12.87;8.97;;;;;;;;;;4775939;29;178093;-70
2021/01/27 04:07:33;;;;;;;14.20;9.17;;;;;;;;;;4774379;29;180035;-69
2021/01/27 04:10:00;;;;;;;13.90;9.40;;;;;;;;;;4773073;28;176719;-70
2021/01/27 04:12:27;;;;;;;16.03;8.67;;;;;;;;;;4770347;29;178928;-70
2021/01/27 04:14:54;;;;;;;15.93;9.37;;;;;;;;;;4773959;28;180000;-70
2021/01/27 04:17:31;;;;;;;15.50;9.00;;;;;;;;;;4757459;29;181332;-70
2021/01/27 04:19:58;;;;;;;15.17;9.60;;;;;;;;;;4776407;29;178044;-70
2021/01/27 04:22:25;;;;;;;22.87;10.57;;;;;;;;;;4773422;28;179217;-70
2021/01/27 04:24:52;;;;;;;17.03;9.90;;;;;;;;;;4773213;29;178174;-70
2021/01/27 04:27:19;;;;;;;14.43;9.50;;;;;;;;;;4773785;29;179395;-70
2021/01/27 04:29:46;;;;;;;14.53;9.93;;;;;;;;;;4774367;29;178223;-70
2021/01/27 04:32:12;;;;;;;15.70;9.80;;;;;;;;;;4757515;29;180870;-69
2021/01/27 04:34:39;;;;;;;16.70;10.00;;;;;;;;;;4768545;29;179064;-70
2021/01/27 04:37:06;;;;;;;14.73;9.40;;;;;;;;;;4773200;29;179750;-70
2021/01/27 04:39:33;;;;;;;16.13;10.17;;;;;;;;;;4775730;29;179427;-69
2021/01/27 04:41:59;;;;;;;18.00;9.73;;;;;;;;;;4770032;29;183479;-70
2021/01/27 04:44:27;;;;;;;22.57;11.17;;;;;;;;;;4775330;29;182049;-70
2021/01/27 04:46:58;;;;;;;18.93;10.40;;;;;;;;;;4774632;29;178672;-70
2021/01/27 04:49:27;;;;;;;16.40;9.87;;;;;;;;;;4774063;29;179505;-70
2021/01/27 04:52:05;;;;;;;16.20;9.87;;;;;;;;;;4773966;29;180035;-69
2021/01/27 04:54:34;;;;;;;15.87;9.83;;;;;;;;;;4773949;29;179944;-70
2021/01/27 04:57:00;;;;;;;15.50;9.87;;;;;;;;;;4775794;29;178279;-69
2021/01/27 04:59:35;;;;;;;14.90;9.37;;;;;;;;;;4776930;29;176511;-69
2021/01/27 05:02:12;;;;;;;16.57;9.87;;;;;;;;;;4774775;29;179323;-70
2021/01/27 05:04:50;;;;;;;14.60;8.83;;;;;;;;;;4776002;29;178767;-70
2021/01/27 05:07:20;;;;;;;15.37;9.23;;;;;;;;;;4766738;29;181864;-70
2021/01/27 05:09:51;;;;;;;18.83;9.80;;;;;;;;;;4775943;29;178389;-70
2021/01/27 05:12:18;;;;;;;24.93;10.83;;;;;;;;;;4773896;29;179467;-70
2021/01/27 05:14:46;;;;;;;24.50;11.30;;;;;;;;;;4773869;29;178382;-70
2021/01/27 05:17:15;;;;;;;25.37;10.17;;;;;;;;;;4771743;29;178040;-70
2021/01/27 05:19:43;;;;;;;32.30;12.47;;;;;;;;;;4774576;29;178067;-70
2021/01/27 05:22:11;;;;;;;28.70;11.70;;;;;;;;;;4766759;29;180015;-70
2021/01/27 05:24:38;;;;;;;29.40;9.70;;;;;;;;;;4774893;29;178293;-70
2021/01/27 05:27:16;;;;;;;22.23;10.37;;;;;;;;;;4773699;29;178349;-70
2021/01/27 05:29:43;;;;;;;32.63;10.60;;;;;;;;;;4774516;29;178017;-69
2021/01/27 05:32:12;;;;;;;32.60;10.80;;;;;;;;;;4771003;29;183828;-70
2021/01/27 05:34:41;;;;;;;24.97;10.70;;;;;;;;;;4772894;29;184200;-70
2021/01/27 05:37:13;;;;;;;35.80;11.60;;;;;;;;;;4775127;29;179167;-70
2021/01/27 05:39:40;;;;;;;31.43;11.53;;;;;;;;;;4777950;29;178535;-70
2021/01/27 05:42:14;;;;;;;37.73;13.20;;;;;;;;;;4768715;29;181826;-70
2021/01/27 05:44:40;;;;;;;34.07;12.27;;;;;;;;;;4776887;29;179668;-70
2021/01/27 05:47:20;;;;;;;41.90;11.87;;;;;;;;;;4774903;29;178163;-70
2021/01/27 05:49:47;;;;;;;35.87;11.83;;;;;;;;;;4778127;29;176819;-70
2021/01/27 05:52:15;;;;;;;43.13;13.47;;;;;;;;;;4775479;29;179305;-70
2021/01/27 05:54:42;;;;;;;26.37;13.37;;;;;;;;;;4775663;29;178849;-70
2021/01/27 05:57:16;;;;;;;40.37;14.67;;;;;;;;;;4774572;29;181343;-70
2021/01/27 05:59:44;;;;;;;28.30;13.30;;;;;;;;;;4774195;29;178353;-70
2021/01/27 06:02:11;;;;;;;29.27;12.63;;;;;;;;;;4776455;29;178718;-70
2021/01/27 06:04:39;;;;;;;71.03;17.33;;;;;;;;;;4776208;29;178893;-70
2021/01/27 06:07:21;;;;;;;33.73;13.70;;;;;;;;;;4775050;29;177994;-70
2021/01/27 06:09:52;;;;;;;38.20;13.97;;;;;;;;;;4766836;29;179792;-70
2021/01/27 06:12:19;;;;;;;33.40;14.10;;;;;;;;;;4775494;29;179816;-70
2021/01/27 06:14:50;;;;;;;44.97;15.47;;;;;;;;;;4770678;29;178632;-70
2021/01/27 06:17:27;;;;;;;51.87;14.20;;;;;;;;;;4775806;29;178731;-70
2021/01/27 06:20:04;;;;;;;33.47;12.93;;;;;;;;;;4775764;29;178718;-70
2021/01/27 06:22:33;;;;;;;41.17;14.03;;;;;;;;;;4774097;29;181950;-70
2021/01/27 06:25:09;;;;;;;41.40;14.70;;;;;;;;;;4772506;29;181633;-70
2021/01/27 06:27:55;;;;;;;61.20;15.53;;;;;;;;;;4776184;29;178480;-70
2021/01/27 06:30:21;;;;;;;36.60;14.27;;;;;;;;;;4776250;29;178077;-70
2021/01/27 06:32:55;;;;;;;42.17;15.03;;;;;;;;;;4773086;29;179307;-70
2021/01/27 06:35:34;;;;;;;55.57;14.67;;;;;;;;;;4772887;29;178471;-70
2021/01/27 06:38:19;;;;;;;40.00;16.00;;;;;;;;;;4773837;29;178744;-70
2021/01/27 06:40:46;;;;;;;39.40;14.80;;;;;;;;;;4770382;29;176368;-70
2021/01/27 06:43:12;;;;;;;42.77;16.83;;;;;;;;;;4757778;29;184514;-70
2021/01/27 06:45:58;;;;;;;60.73;16.57;;;;;;;;;;4770838;29;179638;-70
2021/01/27 06:48:46;;;;;;;58.67;19.67;;;;;;;;;;4752874;29;182311;-70
2021/01/27 06:51:28;;;;;;;79.47;18.43;;;;;;;;;;4755736;29;178038;-70
2021/01/27 06:54:00;;;;;;;51.33;17.13;;;;;;;;;;4756215;29;179424;-70
2021/01/27 06:56:52;;;;;;;131.50;25.07;;;;;;;;;;4740246;29;179285;-70
2021/01/27 06:59:56;;;;;;;54.57;17.40;;;;;;;;;;4755910;29;178564;-70
2021/01/27 07:02:41;;;;;;;38.43;15.97;;;;;;;;;;4697843;29;178885;-70
2021/01/27 07:05:20;;;;;;;35.03;16.33;;;;;;;;;;4752304;29;180364;-70
2021/01/27 07:08:06;;;;;;;38.20;17.23;;;;;;;;;;4758594;29;177861;-70
2021/01/27 07:10:51;;;;;;;37.03;16.50;;;;;;;;;;4771279;29;180173;-70
2021/01/27 07:13:23;;;;;;;27.60;15.30;;;;;;;;;;4773999;29;178376;-70
2021/01/27 07:15:58;;;;;;;45.80;16.67;;;;;;;;;;4769575;29;183868;-70
2021/01/27 07:18:47;;;;;;;49.10;17.83;;;;;;;;;;4772162;29;181640;-70
2021/01/27 07:21:18;;;;;;;85.30;24.30;;;;;;;;;;4761547;29;180143;-70
2021/01/27 07:24:07;;;;;;;46.27;20.60;;;;;;;;;;4768346;29;179327;-70
2021/01/27 07:26:49;;;;;;;29.83;16.70;;;;;;;;;;4773026;29;178816;-70
2021/01/27 07:29:26;;;;;;;42.53;16.93;;;;;;;;;;4773665;29;178955;-70
2021/01/27 07:31:58;;;;;;;48.27;18.57;;;;;;;;;;4773570;29;177936;-70
2021/01/27 07:34:31;;;;;;;41.03;18.10;;;;;;;;;;4772728;29;176451;-70
2021/01/27 07:37:14;;;;;;;54.93;19.87;;;;;;;;;;4774088;29;179310;-70
2021/01/27 07:39:43;;;;;;;52.93;19.03;;;;;;;;;;4770776;29;178704;-70
2021/01/27 07:42:10;;;;;;;47.93;19.53;;;;;;;;;;4760384;29;181333;-70
2021/01/27 07:44:37;;;;;;;36.80;18.50;;;;;;;;;;4773366;29;177874;-70
2021/01/27 07:47:07;;;;;;;77.33;19.57;;;;;;;;;;4763994;29;179752;-70
2021/01/27 07:49:41;;;;;;;71.10;23.57;;;;;;;;;;4754817;29;182425;-70
2021/01/27 07:52:14;;;;;;;63.10;21.80;;;;;;;;;;4765584;29;178085;-70
2021/01/27 07:54:45;;;;;;;43.10;19.60;;;;;;;;;;4774057;29;178602;-71
2021/01/27 07:57:24;;;;;;;39.00;19.57;;;;;;;;;;4748344;29;180017;-71
2021/01/27 08:00:03;;;;;;;39.10;20.20;;;;;;;;;;4771611;29;176964;-71
2021/01/27 08:02:58;;;;;;;42.53;20.50;;;;;;;;;;4765078;29;180541;-71
2021/01/27 08:05:25;;;;;;;36.07;18.93;;;;;;;;;;4772588;29;178351;-71
2021/01/27 08:08:01;;;;;;;37.97;20.13;;;;;;;;;;4767990;29;182111;-71
2021/01/27 08:10:29;;;;;;;37.77;19.57;;;;;;;;;;4756423;29;181122;-72
2021/01/27 08:13:03;;;;;;;34.13;18.97;;;;;;;;;;4772247;29;178582;-72
2021/01/27 08:15:30;;;;;;;44.57;21.10;;;;;;;;;;4765995;29;178194;-72
2021/01/27 08:18:00;;;;;;;65.33;23.63;;;;;;;;;;4769879;29;180217;-72
2021/01/27 08:20:41;;;;;;;51.50;22.37;;;;;;;;;;4769633;29;181572;-72
2021/01/27 08:23:11;;;;;;;60.80;23.70;;;;;;;;;;4766408;29;178457;-72
2021/01/27 08:25:58;;;;;;;43.17;20.07;;;;;;;;;;4770818;29;177211;-72
2021/01/27 08:28:34;;;;;;;50.17;22.33;;;;;;;;;;4772310;29;178870;-72
2021/01/27 08:31:09;;;;;;;47.80;21.87;;;;;;;;;;4772178;29;179570;-72
2021/01/27 08:33:46;;;;;;;45.57;21.67;;;;;;;;;;4770856;29;181304;-72
2021/01/27 08:36:16;;;;;;;52.80;22.73;;;;;;;;;;4760220;29;178144;-72
2021/01/27 08:38:45;;;;;;;60.77;25.40;;;;;;;;;;4762506;29;178846;-72
2021/01/27 08:41:32;;;;;;;40.60;21.37;;;;;;;;;;4759672;29;178968;-72
2021/01/27 08:44:00;;;;;;;46.43;22.03;;;;;;;;;;4760329;29;178575;-72
2021/01/27 08:46:45;;;;;;;45.40;22.23;;;;;;;;;;4770242;29;178720;-72
2021/01/27 08:49:34;;;;;;;40.93;21.23;;;;;;;;;;4763510;29;179207;-72
2021/01/27 08:52:01;;;;;;;39.80;20.97;;;;;;;;;;4774257;29;179908;-73
2021/01/27 08:54:40;;;;;;;46.63;23.00;;;;;;;;;;4775522;29;177814;-72
2021/01/27 08:57:20;;;;;;;48.60;23.10;;;;;;;;;;4775309;29;177880;-72
2021/01/27 09:00:21;;;;;;;43.97;22.23;;;;;;;;;;4773424;29;182771;-72
2021/01/27 09:02:52;;;;;;;44.27;21.40;;;;;;;;;;4743498;29;182580;-71
2021/01/27 09:05:25;;;;;;;39.57;21.07;;;;;;;;;;4773539;29;178578;-72
2021/01/27 09:07:52;;;;;;;45.33;23.23;;;;;;;;;;4775242;29;177954;-72
2021/01/27 09:10:27;;;;;;;50.53;24.80;;;;;;;;;;4774833;29;179378;-72
2021/01/27 09:12:54;;;;;;;44.33;23.60;;;;;;;;;;4777863;29;178735;-72
2021/01/27 09:15:25;;;;;;;50.07;24.17;;;;;;;;;;4778246;29;177918;-72
2021/01/27 09:17:51;;;;;;;42.67;23.83;;;;;;;;;;4779509;29;177648;-72
2021/01/27 09:20:22;;;;;;;45.40;22.83;;;;;;;;;;4777782;29;179390;-73
2021/01/27 09:22:49;;;;;;;43.30;22.60;;;;;;;;;;4777875;29;177996;-72
2021/01/27 09:25:16;;;;;;;39.83;22.17;;;;;;;;;;4765153;29;181381;-72
2021/01/27 09:27:42;;;;;;;41.97;24.00;;;;;;;;;;4778207;29;177981;-72
2021/01/27 09:30:14;;;;;;;41.43;22.60;;;;;;;;;;4776481;29;179139;-72
2021/01/27 09:32:41;;;;;;;37.13;22.20;;;;;;;;;;4773775;29;178742;-72
2021/01/27 09:35:19;;;;;;;39.70;21.20;;;;;;;;;;4776497;29;177924;-72
2021/01/27 09:38:12;;;;;;;35.13;21.30;;;;;;;;;;4766762;29;179837;-71
2021/01/27 09:40:41;;;;;;;39.53;22.60;;;;;;;;;;4777369;28;178142;-71
2021/01/27 09:43:09;;;;;;;38.70;22.10;;;;;;;;;;4796670;28;177542;-71
2021/01/27 09:45:37;;;;;;;38.07;22.63;;;;;;;;;;4774730;28;178612;-71
2021/01/27 09:48:04;;;;;;;39.57;22.50;;;;;;;;;;4760554;29;178571;-70
2021/01/27 09:50:32;;;;;;;39.00;21.87;;;;;;;;;;4774095;29;185426;-71
2021/01/27 09:53:00;;;;;;;35.47;21.97;;;;;;;;;;4772965;29;181909;-71
2021/01/27 09:55:28;;;;;;;36.67;21.60;;;;;;;;;;4789842;28;178277;-71
2021/01/27 09:57:55;;;;;;;35.87;22.43;;;;;;;;;;4774006;29;178837;-70
2021/01/27 10:00:28;;;;;;;36.93;22.37;;;;;;;;;;4776427;29;179087;-71
2021/01/27 10:02:56;;;;;;;39.20;21.37;;;;;;;;;;4776805;29;180227;-71
2021/01/27 10:05:34;;;;;;;38.23;21.73;;;;;;;;;;4777662;29;177883;-71
2021/01/27 10:08:01;;;;;;;34.67;22.13;;;;;;;;;;4778598;29;176517;-70
2021/01/27 10:10:28;;;;;;;38.17;22.43;;;;;;;;;;4769401;29;178918;-70
2021/01/27 10:12:56;;;;;;;35.83;22.90;;;;;;;;;;4773009;29;178417;-71
2021/01/27 10:15:30;;;;;;;34.40;21.83;;;;;;;;;;4774423;29;181805;-71
2021/01/27 10:18:05;;;;;;;36.77;22.67;;;;;;;;;;4772872;29;180152;-70
2021/01/27 10:20:34;;;;;;;34.13;21.00;;;;;;;;;;4784310;28;179346;-71
2021/01/27 10:23:01;;;;;;;34.90;22.13;;;;;;;;;;4776532;29;178228;-71
2021/01/27 10:25:30;;;;;;;33.50;21.47;;;;;;;;;;4763242;29;178892;-71
2021/01/27 10:28:08;;;;;;;30.73;21.30;;;;;;;;;;4777139;29;178044;-71
2021/01/27 10:30:39;;;;;;;35.07;21.63;;;;;;;;;;4777190;29;179794;-71
2021/01/27 10:33:26;;;;;;;33.33;21.07;;;;;;;;;;4777752;29;178532;-71
2021/01/27 10:35:53;;;;;;;33.23;22.17;;;;;;;;;;4758558;29;178793;-71
2021/01/27 10:38:22;;;;;;;31.93;21.23;;;;;;;;;;4767270;29;180498;-71
2021/01/27 10:41:09;;;;;;;29.73;21.17;;;;;;;;;;4756958;29;183184;-71
2021/01/27 10:43:36;;;;;;;33.80;21.33;;;;;;;;;;4758557;29;181547;-70
2021/01/27 10:46:20;;;;;;;29.20;20.93;;;;;;;;;;4758800;29;177855;-75
2021/01/27 10:48:47;;;;;;;28.73;20.20;;;;;;;;;;4749758;29;177894;-73
2021/01/27 10:51:14;;;;;;;32.50;23.13;;;;;;;;;;4775395;29;180377;-68
2021/01/27 10:53:41;;;;;;;29.07;20.93;;;;;;;;;;4768512;29;179335;-73
2021/01/27 10:56:08;;;;;;;30.53;20.37;;;;;;;;;;4777230;29;177874;-73
2021/01/27 10:58:35;;;;;;;26.77;19.27;;;;;;;;;;4776331;29;178622;-70
2021/01/27 11:01:02;;;;;;;28.53;19.93;;;;;;;;;;4774587;29;179397;-71
2021/01/27 11:03:28;;;;;;;26.90;20.37;;;;;;;;;;4774849;29;179726;-70
2021/01/27 11:05:56;;;;;;;27.67;20.30;;;;;;;;;;4773404;29;181247;-71
2021/01/27 11:08:22;;;;;;;26.80;20.10;;;;;;;;;;4776936;29;178034;-71
2021/01/27 11:10:52;;;;;;;25.63;19.70;;;;;;;;;;4776104;29;181324;-77
2021/01/27 11:13:19;;;;;;;30.50;20.30;;;;;;;;;;4776344;29;178411;-73
2021/01/27 11:15:46;;;;;;;27.47;21.17;;;;;;;;;;4776974;29;178861;-75
2021/01/27 11:18:13;;;;;;;28.47;21.90;;;;;;;;;;4775579;29;177949;-72
2021/01/27 11:20:40;;;;;;;27.80;19.63;;;;;;;;;;4772922;29;179470;-73
2021/01/27 11:23:07;;;;;;;26.63;19.33;;;;;;;;;;4775289;29;178733;-73
2021/01/27 11:25:33;;;;;;;26.97;20.00;;;;;;;;;;4776895;29;178384;-73
2021/01/27 11:28:00;;;;;;;28.47;18.53;;;;;;;;;;4775546;29;178539;-73
2021/01/27 11:30:29;;;;;;;30.27;20.20;;;;;;;;;;4758178;29;183628;-73
2021/01/27 11:32:56;;;;;;;29.10;20.20;;;;;;;;;;4775386;29;181071;-73
2021/01/27 11:35:23;;;;;;;25.50;19.63;;;;;;;;;;4773348;29;178008;-73
2021/01/27 11:37:51;;;;;;;26.07;19.80;;;;;;;;;;4786784;28;177882;-73
2021/01/27 11:40:19;;;;;;;25.10;18.53;;;;;;;;;;4788441;28;179352;-71
2021/01/27 11:42:46;;;;;;;25.40;18.73;;;;;;;;;;4779194;28;178468;-71
2021/01/27 11:45:13;;;;;;;23.47;18.63;;;;;;;;;;4776395;29;177998;-71
2021/01/27 11:47:40;;;;;;;26.97;19.07;;;;;;;;;;4776995;29;176590;-71
2021/01/27 11:50:07;;;;;;;25.77;17.77;;;;;;;;;;4776209;29;179248;-71
2021/01/27 11:52:34;;;;;;;21.57;17.37;;;;;;;;;;4771099;29;178362;-71
2021/01/27 11:55:01;;;;;;;21.63;16.33;;;;;;;;;;4756513;29;181883;-71
2021/01/27 11:57:27;;;;;;;22.43;16.93;;;;;;;;;;4773180;29;178356;-71
2021/01/27 11:59:54;;;;;;;23.50;16.87;;;;;;;;;;4771832;29;179873;-71
2021/01/27 12:02:21;;;;;;;22.07;17.23;;;;;;;;;;4767717;29;178345;-74
2021/01/27 12:04:48;;;;;;;24.20;17.53;;;;;;;;;;4773089;29;178743;-73
2021/01/27 12:07:14;;;;;;;21.97;16.60;;;;;;;;;;4773420;29;178421;-73
2021/01/27 12:09:46;;;;;;;22.50;15.70;;;;;;;;;;4771512;29;179814;-73
2021/01/27 12:12:13;;;;;;;20.40;17.03;;;;;;;;;;4763816;29;178916;-72
2021/01/27 12:14:40;;;;;;;20.13;15.60;;;;;;;;;;4742465;29;180526;-72
2021/01/27 12:17:06;;;;;;;20.77;17.50;;;;;;;;;;4766241;29;178720;-72
2021/01/27 12:19:33;;;;;;;31.83;21.93;;;;;;;;;;4770593;29;182400;-69
2021/01/27 12:22:00;;;;;;;20.17;15.87;;;;;;;;;;4771425;29;182571;-71
2021/01/27 12:24:27;;;;;;;16.47;14.67;;;;;;;;;;4771647;29;178159;-71
2021/01/27 12:26:53;;;;;;;22.33;16.53;;;;;;;;;;4773126;29;178096;-71
2021/01/27 12:29:24;;;;;;;19.40;13.50;;;;;;;;;;4771970;29;179213;-71
2021/01/27 12:31:51;;;;;;;19.10;12.93;;;;;;;;;;4772179;29;178222;-72
2021/01/27 12:34:18;;;;;;;17.80;14.17;;;;;;;;;;4772778;29;178621;-71
2021/01/27 12:36:46;;;;;;;16.30;13.43;;;;;;;;;;4772844;29;177284;-71
2021/01/27 12:39:12;;;;;;;15.97;12.33;;;;;;;;;;4768862;29;179366;-70
2021/01/27 12:41:39;;;;;;;15.77;12.47;;;;;;;;;;4757865;29;179006;-72
2021/01/27 12:44:06;;;;;;;16.27;12.57;;;;;;;;;;4752317;29;181710;-73
2021/01/27 12:46:33;;;;;;;18.23;13.80;;;;;;;;;;4767526;29;178271;-72
2021/01/27 12:49:00;;;;;;;16.13;13.13;;;;;;;;;;4775933;29;179397;-72
2021/01/27 12:51:27;;;;;;;16.23;12.17;;;;;;;;;;4775557;29;178715;-72
2021/01/27 12:53:54;;;;;;;14.70;12.33;;;;;;;;;;4774804;29;177999;-72
2021/01/27 12:56:21;;;;;;;15.37;12.23;;;;;;;;;;4772450;29;177933;-71
2021/01/27 12:58:48;;;;;;;17.77;12.53;;;;;;;;;;4773280;29;178697;-72
2021/01/27 13:01:14;;;;;;;14.33;11.67;;;;;;;;;;4772180;29;178859;-72
2021/01/27 13:03:42;;;;;;;15.93;11.57;;;;;;;;;;4774766;29;180146;-72
2021/01/27 13:06:09;;;;;;;14.57;12.20;;;;;;;;;;4776781;29;178918;-72
2021/01/27 13:08:36;;;;;;;14.43;11.73;;;;;;;;;;4770520;29;182584;-71
2021/01/27 13:11:02;;;;;;;12.93;11.37;;;;;;;;;;4775809;29;182257;-71
2021/01/27 13:13:29;;;;;;;17.87;12.33;;;;;;;;;;4772045;29;177908;-70
2021/01/27 13:15:56;;;;;;;18.50;11.93;;;;;;;;;;4764343;29;178136;-71
2021/01/27 13:18:24;;;;;;;14.73;12.03;;;;;;;;;;4777749;29;179280;-71
2021/01/27 13:20:51;;;;;;;13.40;11.67;;;;;;;;;;4778219;29;178125;-72
2021/01/27 13:23:18;;;;;;;16.43;12.70;;;;;;;;;;4778486;29;178036;-72
2021/01/27 13:25:44;;;;;;;17.17;11.97;;;;;;;;;;4777978;29;176994;-72
2021/01/27 13:28:11;;;;;;;18.83;13.23;;;;;;;;;;4764611;29;179113;-71
2021/01/27 13:30:38;;;;;;;16.23;11.80;;;;;;;;;;4761435;29;180195;-71
2021/01/27 13:33:06;;;;;;;14.17;11.40;;;;;;;;;;4759437;29;182435;-73
2021/01/27 13:35:33;;;;;;;14.30;9.93;;;;;;;;;;4759805;29;178034;-70
2021/01/27 13:38:00;;;;;;;18.00;12.20;;;;;;;;;;4760953;29;178880;-69
2021/01/27 13:40:27;;;;;;;14.67;11.37;;;;;;;;;;4760003;29;178570;-71
2021/01/27 13:42:54;;;;;;;12.83;10.23;;;;;;;;;;4775928;29;177890;-71
2021/01/27 13:45:22;;;;;;;14.30;11.03;;;;;;;;;;4761942;29;178115;-72
2021/01/27 13:47:49;;;;;;;14.17;10.80;;;;;;;;;;4777564;29;179568;-70
2021/01/27 13:50:16;;;;;;;14.07;11.80;;;;;;;;;;4761881;29;181161;-70
2021/01/27 13:52:43;;;;;;;13.83;10.67;;;;;;;;;;4777505;29;178494;-72
2021/01/27 13:55:11;;;;;;;17.60;12.20;;;;;;;;;;4778352;29;178440;-72
2021/01/27 13:57:37;;;;;;;13.70;10.40;;;;;;;;;;4762551;29;182662;-71
2021/01/27 14:00:06;;;;;;;13.40;12.00;;;;;;;;;;4761482;29;181622;-71
2021/01/27 14:02:33;;;;;;;14.10;12.10;;;;;;;;;;4777856;29;177830;-72
2021/01/27 14:05:00;;;;;;;15.23;12.43;;;;;;;;;;4777102;29;178059;-71
2021/01/27 14:07:26;;;;;;;13.13;10.20;;;;;;;;;;4777493;29;179293;-68
2021/01/27 14:09:53;;;;;;;14.33;11.23;;;;;;;;;;4777616;29;178434;-70
2021/01/27 14:12:20;;;;;;;13.00;10.30;;;;;;;;;;4775751;29;177990;-70
2021/01/27 14:14:49;;;;;;;14.57;10.97;;;;;;;;;;4778630;29;176579;-71
2021/01/27 14:17:16;;;;;;;12.67;10.33;;;;;;;;;;4775767;29;180084;-69
2021/01/27 14:19:43;;;;;;;15.97;12.37;;;;;;;;;;4776941;29;178849;-73
2021/01/27 14:22:10;;;;;;;16.73;12.57;;;;;;;;;;4773824;29;182219;-73
2021/01/27 14:24:37;;;;;;;13.47;10.77;;;;;;;;;;4777856;29;178209;-72
2021/01/27 14:27:04;;;;;;;17.07;13.17;;;;;;;;;;4773937;29;179075;-72
2021/01/27 14:29:31;;;;;;;15.50;13.63;;;;;;;;;;4775161;29;178390;-70
2021/01/27 14:31:58;;;;;;;17.13;11.00;;;;;;;;;;4776096;29;177927;-72
2021/01/27 14:34:25;;;;;;;12.17;9.03;;;;;;;;;;4777055;29;177975;-70